sensor_id;sensor_type;location;lat;lon;timestamp;temperature;humidity
4749;DHT22;2388;53.582;9.962;2023-03-03T00:00:48;3.20;99.90
4749;DHT22;2388;53.582;9.962;2023-03-03T00:03:19;3.20;99.90
4749;DHT22;2388;53.582;9.962;2023-03-03T00:05:45;3.20;99.90
4749;DHT22;2388;53.582;9.962;2023-03-03T00:08:10;3.30;99.90
4749;DHT22;2388;53.582;9.962;2023-03-03T00:10:37;3.30;99.90
4749;DHT22;2388;53.582;9.962;2023-03-03T00:13:02;3.30;99.90
4749;DHT22;2388;53.582;9.962;2023-03-03T00:15:29;3.30;99.90
4749;DHT22;2388;53.582;9.962;2023-03-03T00:17:55;3.30;99.90
4749;DHT22;2388;53.582;9.962;2023-03-03T00:20:34;3.20;99.90
4749;DHT22;2388;53.582;9.962;2023-03-03T00:23:15;3.20;99.90
4749;DHT22;2388;53.582;9.962;2023-03-03T00:25:45;3.20;99.90
4749;DHT22;2388;53.582;9.962;2023-03-03T00:28:27;3.20;99.90
4749;DHT22;2388;53.582;9.962;2023-03-03T00:30:54;3.20;99.90
4749;DHT22;2388;53.582;9.962;2023-03-03T00:33:31;3.10;99.90
4749;DHT22;2388;53.582;9.962;2023-03-03T00:36:21;3.00;99.90
4749;DHT22;2388;53.582;9.962;2023-03-03T00:38:53;2.80;99.90
4749;DHT22;2388;53.582;9.962;2023-03-03T00:41:25;2.80;99.90
4749;DHT22;2388;53.582;9.962;2023-03-03T00:43:51;2.70;99.90
4749;DHT22;2388;53.582;9.962;2023-03-03T00:46:18;2.80;99.90
4749;DHT22;2388;53.582;9.962;2023-03-03T00:48:45;2.80;99.90
4749;DHT22;2388;53.582;9.962;2023-03-03T00:51:18;2.70;99.90
4749;DHT22;2388;53.582;9.962;2023-03-03T00:53:45;2.70;99.90
4749;DHT22;2388;53.582;9.962;2023-03-03T00:56:10;2.70;99.90
4749;DHT22;2388;53.582;9.962;2023-03-03T00:58:36;2.60;99.90
4749;DHT22;2388;53.582;9.962;2023-03-03T01:01:01;2.70;99.90
4749;DHT22;2388;53.582;9.962;2023-03-03T01:03:27;2.70;99.90
4749;DHT22;2388;53.582;9.962;2023-03-03T01:05:53;2.70;99.90
4749;DHT22;2388;53.582;9.962;2023-03-03T01:08:19;2.70;99.90
4749;DHT22;2388;53.582;9.962;2023-03-03T01:10:51;2.80;99.90
4749;DHT22;2388;53.582;9.962;2023-03-03T01:13:20;2.80;99.90
4749;DHT22;2388;53.582;9.962;2023-03-03T01:15:48;2.80;99.90
4749;DHT22;2388;53.582;9.962;2023-03-03T01:18:13;2.80;99.90
4749;DHT22;2388;53.582;9.962;2023-03-03T01:20:39;2.70;99.90
4749;DHT22;2388;53.582;9.962;2023-03-03T01:23:05;2.70;99.90
4749;DHT22;2388;53.582;9.962;2023-03-03T01:25:31;2.70;99.90
4749;DHT22;2388;53.582;9.962;2023-03-03T01:27:57;3.00;99.90
4749;DHT22;2388;53.582;9.962;2023-03-03T01:30:23;2.60;99.90
4749;DHT22;2388;53.582;9.962;2023-03-03T01:32:49;2.60;99.90
4749;DHT22;2388;53.582;9.962;2023-03-03T01:35:15;2.70;99.90
4749;DHT22;2388;53.582;9.962;2023-03-03T01:37:40;2.60;99.90
4749;DHT22;2388;53.582;9.962;2023-03-03T01:40:11;2.60;99.90
4749;DHT22;2388;53.582;9.962;2023-03-03T01:42:37;2.60;99.90
4749;DHT22;2388;53.582;9.962;2023-03-03T01:45:24;2.60;99.90
4749;DHT22;2388;53.582;9.962;2023-03-03T01:50:29;2.70;99.90
4749;DHT22;2388;53.582;9.962;2023-03-03T01:52:57;2.50;99.90
4749;DHT22;2388;53.582;9.962;2023-03-03T01:55:28;2.50;99.90
4749;DHT22;2388;53.582;9.962;2023-03-03T01:58:18;2.50;99.90
4749;DHT22;2388;53.582;9.962;2023-03-03T02:00:50;2.50;99.90
4749;DHT22;2388;53.582;9.962;2023-03-03T02:03:18;2.50;99.90
4749;DHT22;2388;53.582;9.962;2023-03-03T02:05:44;2.60;99.90
4749;DHT22;2388;53.582;9.962;2023-03-03T02:08:11;2.60;99.90
4749;DHT22;2388;53.582;9.962;2023-03-03T02:10:42;2.50;99.90
4749;DHT22;2388;53.582;9.962;2023-03-03T02:13:09;2.50;99.90
4749;DHT22;2388;53.582;9.962;2023-03-03T02:15:34;2.40;99.90
4749;DHT22;2388;53.582;9.962;2023-03-03T02:18:10;2.40;99.90
4749;DHT22;2388;53.582;9.962;2023-03-03T02:23:21;2.40;99.90
4749;DHT22;2388;53.582;9.962;2023-03-03T02:28:16;2.20;99.90
4749;DHT22;2388;53.582;9.962;2023-03-03T02:30:43;2.20;99.90
4749;DHT22;2388;53.582;9.962;2023-03-03T02:33:08;2.20;99.90
4749;DHT22;2388;53.582;9.962;2023-03-03T02:35:38;2.30;99.90
4749;DHT22;2388;53.582;9.962;2023-03-03T02:40:52;2.40;99.90
4749;DHT22;2388;53.582;9.962;2023-03-03T02:43:21;2.40;99.90
4749;DHT22;2388;53.582;9.962;2023-03-03T02:45:47;2.30;99.90
4749;DHT22;2388;53.582;9.962;2023-03-03T02:48:13;2.30;99.90
4749;DHT22;2388;53.582;9.962;2023-03-03T02:50:38;2.30;99.90
4749;DHT22;2388;53.582;9.962;2023-03-03T02:53:04;2.30;99.90
4749;DHT22;2388;53.582;9.962;2023-03-03T02:55:29;2.20;99.90
4749;DHT22;2388;53.582;9.962;2023-03-03T02:57:55;2.10;99.90
4749;DHT22;2388;53.582;9.962;2023-03-03T03:00:21;2.10;99.90
4749;DHT22;2388;53.582;9.962;2023-03-03T03:02:46;2.00;99.90
4749;DHT22;2388;53.582;9.962;2023-03-03T03:05:12;2.10;99.90
4749;DHT22;2388;53.582;9.962;2023-03-03T03:07:37;2.10;99.90
4749;DHT22;2388;53.582;9.962;2023-03-03T03:10:03;2.10;99.90
4749;DHT22;2388;53.582;9.962;2023-03-03T03:12:29;2.10;99.90
4749;DHT22;2388;53.582;9.962;2023-03-03T03:14:54;2.10;99.90
4749;DHT22;2388;53.582;9.962;2023-03-03T03:17:20;2.10;99.90
4749;DHT22;2388;53.582;9.962;2023-03-03T03:19:45;2.10;99.90
4749;DHT22;2388;53.582;9.962;2023-03-03T03:22:11;2.20;99.90
4749;DHT22;2388;53.582;9.962;2023-03-03T03:24:36;2.10;99.90
4749;DHT22;2388;53.582;9.962;2023-03-03T03:27:02;2.20;99.90
4749;DHT22;2388;53.582;9.962;2023-03-03T03:29:27;2.10;99.90
4749;DHT22;2388;53.582;9.962;2023-03-03T03:31:53;2.10;99.90
4749;DHT22;2388;53.582;9.962;2023-03-03T03:34:18;2.10;99.90
4749;DHT22;2388;53.582;9.962;2023-03-03T03:36:44;2.10;99.90
4749;DHT22;2388;53.582;9.962;2023-03-03T03:39:11;2.10;99.90
4749;DHT22;2388;53.582;9.962;2023-03-03T03:41:36;2.10;99.90
4749;DHT22;2388;53.582;9.962;2023-03-03T03:44:02;2.00;99.90
4749;DHT22;2388;53.582;9.962;2023-03-03T03:46:28;2.10;99.90
4749;DHT22;2388;53.582;9.962;2023-03-03T03:48:53;2.10;99.90
4749;DHT22;2388;53.582;9.962;2023-03-03T03:51:19;2.10;99.90
4749;DHT22;2388;53.582;9.962;2023-03-03T03:53:44;2.10;99.90
4749;DHT22;2388;53.582;9.962;2023-03-03T03:56:10;2.00;99.90
4749;DHT22;2388;53.582;9.962;2023-03-03T03:58:35;1.90;99.90
4749;DHT22;2388;53.582;9.962;2023-03-03T04:01:03;1.80;99.90
4749;DHT22;2388;53.582;9.962;2023-03-03T04:03:29;1.60;99.90
4749;DHT22;2388;53.582;9.962;2023-03-03T04:05:54;1.70;99.90
4749;DHT22;2388;53.582;9.962;2023-03-03T04:08:20;1.70;99.90
4749;DHT22;2388;53.582;9.962;2023-03-03T04:10:45;1.80;99.90
4749;DHT22;2388;53.582;9.962;2023-03-03T04:13:11;1.80;99.90
4749;DHT22;2388;53.582;9.962;2023-03-03T04:15:36;1.80;99.90
4749;DHT22;2388;53.582;9.962;2023-03-03T04:18:02;1.80;99.90
4749;DHT22;2388;53.582;9.962;2023-03-03T04:20:28;1.90;99.90
4749;DHT22;2388;53.582;9.962;2023-03-03T04:22:53;1.90;99.90
4749;DHT22;2388;53.582;9.962;2023-03-03T04:25:19;1.90;99.90
4749;DHT22;2388;53.582;9.962;2023-03-03T04:27:45;1.80;99.90
4749;DHT22;2388;53.582;9.962;2023-03-03T04:30:12;1.60;99.90
4749;DHT22;2388;53.582;9.962;2023-03-03T04:32:38;1.50;99.90
4749;DHT22;2388;53.582;9.962;2023-03-03T04:35:04;1.50;99.90
4749;DHT22;2388;53.582;9.962;2023-03-03T04:37:29;1.60;99.90
4749;DHT22;2388;53.582;9.962;2023-03-03T04:39:55;1.60;99.90
4749;DHT22;2388;53.582;9.962;2023-03-03T04:42:20;1.70;99.90
4749;DHT22;2388;53.582;9.962;2023-03-03T04:44:46;1.80;99.90
4749;DHT22;2388;53.582;9.962;2023-03-03T04:47:11;1.90;99.90
4749;DHT22;2388;53.582;9.962;2023-03-03T04:49:37;1.80;99.90
4749;DHT22;2388;53.582;9.962;2023-03-03T04:52:03;1.80;99.90
4749;DHT22;2388;53.582;9.962;2023-03-03T04:54:28;1.60;99.90
4749;DHT22;2388;53.582;9.962;2023-03-03T04:56:54;1.60;99.90
4749;DHT22;2388;53.582;9.962;2023-03-03T04:59:19;1.60;99.90
4749;DHT22;2388;53.582;9.962;2023-03-03T05:01:45;1.60;99.90
4749;DHT22;2388;53.582;9.962;2023-03-03T05:04:11;1.70;99.90
4749;DHT22;2388;53.582;9.962;2023-03-03T05:06:36;1.70;99.90
4749;DHT22;2388;53.582;9.962;2023-03-03T05:09:02;1.70;99.90
4749;DHT22;2388;53.582;9.962;2023-03-03T05:11:28;1.80;99.90
4749;DHT22;2388;53.582;9.962;2023-03-03T05:13:53;1.80;99.90
4749;DHT22;2388;53.582;9.962;2023-03-03T05:16:19;1.80;99.90
4749;DHT22;2388;53.582;9.962;2023-03-03T05:18:44;1.80;99.90
4749;DHT22;2388;53.582;9.962;2023-03-03T05:21:10;1.80;99.90
4749;DHT22;2388;53.582;9.962;2023-03-03T05:23:36;1.80;99.90
4749;DHT22;2388;53.582;9.962;2023-03-03T05:26:01;1.80;99.90
4749;DHT22;2388;53.582;9.962;2023-03-03T05:28:27;1.70;99.90
4749;DHT22;2388;53.582;9.962;2023-03-03T05:30:53;1.70;99.90
4749;DHT22;2388;53.582;9.962;2023-03-03T05:33:18;1.70;99.90
4749;DHT22;2388;53.582;9.962;2023-03-03T05:35:44;1.70;99.90
4749;DHT22;2388;53.582;9.962;2023-03-03T05:38:10;1.60;99.90
4749;DHT22;2388;53.582;9.962;2023-03-03T05:40:36;1.50;99.90
4749;DHT22;2388;53.582;9.962;2023-03-03T05:43:02;1.60;99.90
4749;DHT22;2388;53.582;9.962;2023-03-03T05:45:27;1.50;99.90
4749;DHT22;2388;53.582;9.962;2023-03-03T05:47:53;1.50;99.90
4749;DHT22;2388;53.582;9.962;2023-03-03T05:50:20;1.50;99.90
4749;DHT22;2388;53.582;9.962;2023-03-03T05:52:55;1.40;99.90
4749;DHT22;2388;53.582;9.962;2023-03-03T05:55:31;1.40;99.90
4749;DHT22;2388;53.582;9.962;2023-03-03T05:57:57;1.40;99.90
4749;DHT22;2388;53.582;9.962;2023-03-03T06:00:22;1.40;99.90
4749;DHT22;2388;53.582;9.962;2023-03-03T06:02:48;1.40;99.90
4749;DHT22;2388;53.582;9.962;2023-03-03T06:05:13;1.40;99.90
4749;DHT22;2388;53.582;9.962;2023-03-03T06:07:39;1.40;99.90
4749;DHT22;2388;53.582;9.962;2023-03-03T06:10:05;1.50;99.90
4749;DHT22;2388;53.582;9.962;2023-03-03T06:12:31;1.50;99.90
4749;DHT22;2388;53.582;9.962;2023-03-03T06:14:57;1.50;99.90
4749;DHT22;2388;53.582;9.962;2023-03-03T06:17:22;1.50;99.90
4749;DHT22;2388;53.582;9.962;2023-03-03T06:19:48;1.50;99.90
4749;DHT22;2388;53.582;9.962;2023-03-03T06:22:13;1.60;99.90
4749;DHT22;2388;53.582;9.962;2023-03-03T06:24:39;1.60;99.90
4749;DHT22;2388;53.582;9.962;2023-03-03T06:27:04;1.60;99.90
4749;DHT22;2388;53.582;9.962;2023-03-03T06:29:30;1.60;99.90
4749;DHT22;2388;53.582;9.962;2023-03-03T06:31:55;1.70;99.90
4749;DHT22;2388;53.582;9.962;2023-03-03T06:34:21;1.80;99.90
4749;DHT22;2388;53.582;9.962;2023-03-03T06:36:46;1.80;99.90
4749;DHT22;2388;53.582;9.962;2023-03-03T06:39:13;1.80;99.90
4749;DHT22;2388;53.582;9.962;2023-03-03T06:41:38;1.70;99.90
4749;DHT22;2388;53.582;9.962;2023-03-03T06:44:04;1.60;99.90
4749;DHT22;2388;53.582;9.962;2023-03-03T06:46:29;1.50;99.90
4749;DHT22;2388;53.582;9.962;2023-03-03T06:48:55;1.50;99.90
4749;DHT22;2388;53.582;9.962;2023-03-03T06:51:29;1.60;99.90
4749;DHT22;2388;53.582;9.962;2023-03-03T06:53:57;1.60;99.90
4749;DHT22;2388;53.582;9.962;2023-03-03T06:56:24;1.60;99.90
4749;DHT22;2388;53.582;9.962;2023-03-03T06:58:56;1.60;99.90
4749;DHT22;2388;53.582;9.962;2023-03-03T07:01:22;1.60;99.90
4749;DHT22;2388;53.582;9.962;2023-03-03T07:03:48;1.70;99.90
4749;DHT22;2388;53.582;9.962;2023-03-03T07:06:26;1.70;99.90
4749;DHT22;2388;53.582;9.962;2023-03-03T07:08:53;1.70;99.90
4749;DHT22;2388;53.582;9.962;2023-03-03T07:11:21;1.70;99.90
4749;DHT22;2388;53.582;9.962;2023-03-03T07:13:49;1.60;99.90
4749;DHT22;2388;53.582;9.962;2023-03-03T07:16:16;1.70;99.90
4749;DHT22;2388;53.582;9.962;2023-03-03T07:18:56;1.60;99.90
4749;DHT22;2388;53.582;9.962;2023-03-03T07:21:35;1.60;99.90
4749;DHT22;2388;53.582;9.962;2023-03-03T07:26:41;1.60;99.90
4749;DHT22;2388;53.582;9.962;2023-03-03T07:29:27;1.60;99.90
4749;DHT22;2388;53.582;9.962;2023-03-03T07:31:55;1.70;99.90
4749;DHT22;2388;53.582;9.962;2023-03-03T07:34:47;1.70;99.90
4749;DHT22;2388;53.582;9.962;2023-03-03T07:37:21;1.80;99.90
4749;DHT22;2388;53.582;9.962;2023-03-03T07:39:51;1.80;99.90
4749;DHT22;2388;53.582;9.962;2023-03-03T07:44:45;1.80;99.90
4749;DHT22;2388;53.582;9.962;2023-03-03T07:47:27;1.90;99.90
4749;DHT22;2388;53.582;9.962;2023-03-03T07:49:56;1.90;99.90
4749;DHT22;2388;53.582;9.962;2023-03-03T07:52:30;1.90;99.90
4749;DHT22;2388;53.582;9.962;2023-03-03T07:54:59;1.80;99.90
4749;DHT22;2388;53.582;9.962;2023-03-03T07:57:36;1.80;99.90
4749;DHT22;2388;53.582;9.962;2023-03-03T08:02:47;1.80;99.90
4749;DHT22;2388;53.582;9.962;2023-03-03T08:07:50;1.80;99.90
4749;DHT22;2388;53.582;9.962;2023-03-03T08:10:50;1.80;99.90
4749;DHT22;2388;53.582;9.962;2023-03-03T08:13:20;1.80;99.90
4749;DHT22;2388;53.582;9.962;2023-03-03T08:15:49;1.70;99.90
4749;DHT22;2388;53.582;9.962;2023-03-03T08:18:27;1.70;99.90
4749;DHT22;2388;53.582;9.962;2023-03-03T08:20:58;1.70;99.90
4749;DHT22;2388;53.582;9.962;2023-03-03T08:23:24;1.70;99.90
4749;DHT22;2388;53.582;9.962;2023-03-03T08:25:50;1.70;99.90
4749;DHT22;2388;53.582;9.962;2023-03-03T08:28:16;1.80;99.90
4749;DHT22;2388;53.582;9.962;2023-03-03T08:30:43;1.80;99.90
4749;DHT22;2388;53.582;9.962;2023-03-03T08:33:10;1.90;99.90
4749;DHT22;2388;53.582;9.962;2023-03-03T08:35:36;2.00;99.90
4749;DHT22;2388;53.582;9.962;2023-03-03T08:38:02;2.20;99.90
4749;DHT22;2388;53.582;9.962;2023-03-03T08:40:27;2.40;99.90
4749;DHT22;2388;53.582;9.962;2023-03-03T08:42:53;2.60;99.90
4749;DHT22;2388;53.582;9.962;2023-03-03T08:45:19;2.80;99.90
4749;DHT22;2388;53.582;9.962;2023-03-03T08:47:44;2.90;99.90
4749;DHT22;2388;53.582;9.962;2023-03-03T08:50:11;3.00;99.90
4749;DHT22;2388;53.582;9.962;2023-03-03T08:52:37;3.10;99.90
4749;DHT22;2388;53.582;9.962;2023-03-03T08:55:03;3.30;99.90
4749;DHT22;2388;53.582;9.962;2023-03-03T08:57:29;3.40;99.90
4749;DHT22;2388;53.582;9.962;2023-03-03T08:59:54;3.50;99.90
4749;DHT22;2388;53.582;9.962;2023-03-03T09:02:20;3.40;99.90
4749;DHT22;2388;53.582;9.962;2023-03-03T09:04:45;3.30;99.90
4749;DHT22;2388;53.582;9.962;2023-03-03T09:07:11;3.10;99.90
4749;DHT22;2388;53.582;9.962;2023-03-03T09:09:36;2.90;99.90
4749;DHT22;2388;53.582;9.962;2023-03-03T09:12:38;2.70;99.90
4749;DHT22;2388;53.582;9.962;2023-03-03T09:15:23;2.60;99.90
4749;DHT22;2388;53.582;9.962;2023-03-03T09:17:49;2.60;99.90
4749;DHT22;2388;53.582;9.962;2023-03-03T09:20:36;2.60;99.90
4749;DHT22;2388;53.582;9.962;2023-03-03T09:25:50;2.50;99.90
4749;DHT22;2388;53.582;9.962;2023-03-03T09:28:26;2.50;99.90
4749;DHT22;2388;53.582;9.962;2023-03-03T09:30:53;2.40;99.90
4749;DHT22;2388;53.582;9.962;2023-03-03T09:35:50;2.40;99.90
4749;DHT22;2388;53.582;9.962;2023-03-03T09:38:30;2.40;99.90
4749;DHT22;2388;53.582;9.962;2023-03-03T09:47:01;2.50;99.90
4749;DHT22;2388;53.582;9.962;2023-03-03T09:50:01;2.60;99.90
4749;DHT22;2388;53.582;9.962;2023-03-03T09:52:51;2.70;99.90
4749;DHT22;2388;53.582;9.962;2023-03-03T10:03:47;2.80;99.90
4749;DHT22;2388;53.582;9.962;2023-03-03T10:06:28;2.80;99.90
4749;DHT22;2388;53.582;9.962;2023-03-03T10:11:45;2.80;99.90
4749;DHT22;2388;53.582;9.962;2023-03-03T10:17:13;2.90;99.90
4749;DHT22;2388;53.582;9.962;2023-03-03T10:22:18;2.90;99.90
4749;DHT22;2388;53.582;9.962;2023-03-03T10:24:48;3.00;99.90
4749;DHT22;2388;53.582;9.962;2023-03-03T10:46:29;3.40;99.90
4749;DHT22;2388;53.582;9.962;2023-03-03T10:49:13;3.50;99.90
4749;DHT22;2388;53.582;9.962;2023-03-03T10:54:53;3.50;99.90
4749;DHT22;2388;53.582;9.962;2023-03-03T10:57:32;3.50;99.90
4749;DHT22;2388;53.582;9.962;2023-03-03T11:11:10;3.40;99.90
4749;DHT22;2388;53.582;9.962;2023-03-03T11:19:12;3.60;99.90
4749;DHT22;2388;53.582;9.962;2023-03-03T11:24:48;3.80;99.90
4749;DHT22;2388;53.582;9.962;2023-03-03T11:27:30;3.90;99.90
4749;DHT22;2388;53.582;9.962;2023-03-03T11:30:27;3.80;99.90
4749;DHT22;2388;53.582;9.962;2023-03-03T11:33:06;3.70;99.90
4749;DHT22;2388;53.582;9.962;2023-03-03T11:35:40;3.70;99.90
4749;DHT22;2388;53.582;9.962;2023-03-03T11:41:11;3.80;99.90
4749;DHT22;2388;53.582;9.962;2023-03-03T11:43:46;3.90;99.90
4749;DHT22;2388;53.582;9.962;2023-03-03T11:49:18;4.00;99.90
4749;DHT22;2388;53.582;9.962;2023-03-03T11:51:48;4.00;99.90
4749;DHT22;2388;53.582;9.962;2023-03-03T11:56:46;4.10;99.90
4749;DHT22;2388;53.582;9.962;2023-03-03T12:04:53;4.40;99.90
4749;DHT22;2388;53.582;9.962;2023-03-03T12:10:22;4.50;99.90
4749;DHT22;2388;53.582;9.962;2023-03-03T12:13:39;4.50;99.90
4749;DHT22;2388;53.582;9.962;2023-03-03T12:16:10;4.60;99.90
4749;DHT22;2388;53.582;9.962;2023-03-03T12:28:00;4.90;99.90
4749;DHT22;2388;53.582;9.962;2023-03-03T12:30:18;5.00;99.90
4749;DHT22;2388;53.582;9.962;2023-03-03T12:38:40;5.10;99.90
4749;DHT22;2388;53.582;9.962;2023-03-03T12:41:31;5.20;99.90
4749;DHT22;2388;53.582;9.962;2023-03-03T12:44:21;5.20;99.90
4749;DHT22;2388;53.582;9.962;2023-03-03T12:49:57;5.40;99.90
4749;DHT22;2388;53.582;9.962;2023-03-03T12:58:05;5.50;99.90
4749;DHT22;2388;53.582;9.962;2023-03-03T13:00:46;5.50;99.90
4749;DHT22;2388;53.582;9.962;2023-03-03T13:03:20;5.50;99.90
4749;DHT22;2388;53.582;9.962;2023-03-03T13:06:06;5.60;99.90
4749;DHT22;2388;53.582;9.962;2023-03-03T13:09:01;5.70;99.90
4749;DHT22;2388;53.582;9.962;2023-03-03T13:11:50;5.70;99.90
4749;DHT22;2388;53.582;9.962;2023-03-03T13:17:11;5.80;99.90
4749;DHT22;2388;53.582;9.962;2023-03-03T13:20:03;5.90;99.90
4749;DHT22;2388;53.582;9.962;2023-03-03T13:22:49;5.90;99.90
4749;DHT22;2388;53.582;9.962;2023-03-03T13:28:20;6.00;99.90
4749;DHT22;2388;53.582;9.962;2023-03-03T13:30:49;6.10;99.90
4749;DHT22;2388;53.582;9.962;2023-03-03T13:33:29;6.10;99.90
4749;DHT22;2388;53.582;9.962;2023-03-03T13:36:02;6.20;99.90
4749;DHT22;2388;53.582;9.962;2023-03-03T13:38:35;6.20;99.90
4749;DHT22;2388;53.582;9.962;2023-03-03T13:41:14;6.30;99.90
4749;DHT22;2388;53.582;9.962;2023-03-03T13:44:20;6.30;99.90
4749;DHT22;2388;53.582;9.962;2023-03-03T13:47:06;6.30;99.90
4749;DHT22;2388;53.582;9.962;2023-03-03T13:49:58;6.30;99.90
4749;DHT22;2388;53.582;9.962;2023-03-03T13:52:31;6.40;99.90
4749;DHT22;2388;53.582;9.962;2023-03-03T14:00:56;6.40;99.90
4749;DHT22;2388;53.582;9.962;2023-03-03T14:03:31;6.40;99.90
4749;DHT22;2388;53.582;9.962;2023-03-03T14:06:07;6.40;99.90
4749;DHT22;2388;53.582;9.962;2023-03-03T14:09:06;6.40;99.90
4749;DHT22;2388;53.582;9.962;2023-03-03T14:19:18;6.50;99.90
4749;DHT22;2388;53.582;9.962;2023-03-03T14:22:17;6.40;99.90
4749;DHT22;2388;53.582;9.962;2023-03-03T14:25:05;6.50;99.90
4749;DHT22;2388;53.582;9.962;2023-03-03T14:30:29;6.40;99.90
4749;DHT22;2388;53.582;9.962;2023-03-03T14:36:23;6.50;99.90
4749;DHT22;2388;53.582;9.962;2023-03-03T14:48:57;6.50;99.90
4749;DHT22;2388;53.582;9.962;2023-03-03T14:51:25;6.50;99.90
4749;DHT22;2388;53.582;9.962;2023-03-03T14:53:53;6.50;99.90
4749;DHT22;2388;53.582;9.962;2023-03-03T14:56:28;6.50;99.90
4749;DHT22;2388;53.582;9.962;2023-03-03T14:59:18;6.60;99.90
4749;DHT22;2388;53.582;9.962;2023-03-03T15:01:45;6.60;99.90
4749;DHT22;2388;53.582;9.962;2023-03-03T15:06:45;6.60;99.90
4749;DHT22;2388;53.582;9.962;2023-03-03T15:09:33;6.60;99.90
4749;DHT22;2388;53.582;9.962;2023-03-03T15:12:33;6.60;99.90
4749;DHT22;2388;53.582;9.962;2023-03-03T15:17:35;6.50;99.90
4749;DHT22;2388;53.582;9.962;2023-03-03T15:23:39;6.50;99.90
4749;DHT22;2388;53.582;9.962;2023-03-03T15:29:14;6.50;99.90
4749;DHT22;2388;53.582;9.962;2023-03-03T15:32:14;6.50;99.90
4749;DHT22;2388;53.582;9.962;2023-03-03T15:40:34;6.40;99.90
4749;DHT22;2388;53.582;9.962;2023-03-03T15:43:47;6.40;99.90
4749;DHT22;2388;53.582;9.962;2023-03-03T15:46:10;6.40;99.90
4749;DHT22;2388;53.582;9.962;2023-03-03T15:48:57;6.40;99.90
4749;DHT22;2388;53.582;9.962;2023-03-03T15:51:45;6.50;99.90
4749;DHT22;2388;53.582;9.962;2023-03-03T15:54:30;6.50;99.90
4749;DHT22;2388;53.582;9.962;2023-03-03T15:57:15;6.50;99.90
4749;DHT22;2388;53.582;9.962;2023-03-03T16:02:21;6.40;99.90
4749;DHT22;2388;53.582;9.962;2023-03-03T16:04:53;6.40;99.90
4749;DHT22;2388;53.582;9.962;2023-03-03T16:07:57;6.40;99.90
4749;DHT22;2388;53.582;9.962;2023-03-03T16:10:54;6.40;99.90
4749;DHT22;2388;53.582;9.962;2023-03-03T16:18:36;6.30;99.90
4749;DHT22;2388;53.582;9.962;2023-03-03T16:21:26;6.30;99.90
4749;DHT22;2388;53.582;9.962;2023-03-03T16:23:59;6.30;99.90
4749;DHT22;2388;53.582;9.962;2023-03-03T16:26:53;6.30;99.90
4749;DHT22;2388;53.582;9.962;2023-03-03T16:29:30;6.20;99.90
4749;DHT22;2388;53.582;9.962;2023-03-03T16:32:09;6.20;99.90
4749;DHT22;2388;53.582;9.962;2023-03-03T16:34:44;6.30;99.90
4749;DHT22;2388;53.582;9.962;2023-03-03T16:37:34;6.20;99.90
4749;DHT22;2388;53.582;9.962;2023-03-03T16:40:10;6.20;99.90
4749;DHT22;2388;53.582;9.962;2023-03-03T16:42:36;6.30;99.90
4749;DHT22;2388;53.582;9.962;2023-03-03T16:47:29;6.20;99.90
4749;DHT22;2388;53.582;9.962;2023-03-03T16:53:17;6.20;99.90
4749;DHT22;2388;53.582;9.962;2023-03-03T16:55:58;6.20;99.90
4749;DHT22;2388;53.582;9.962;2023-03-03T16:58:45;6.20;99.90
4749;DHT22;2388;53.582;9.962;2023-03-03T17:06:47;6.20;99.90
4749;DHT22;2388;53.582;9.962;2023-03-03T17:12:10;6.20;99.90
4749;DHT22;2388;53.582;9.962;2023-03-03T17:14:51;6.20;99.90
4749;DHT22;2388;53.582;9.962;2023-03-03T17:19:52;6.10;99.90
4749;DHT22;2388;53.582;9.962;2023-03-03T17:27:58;6.10;99.90
4749;DHT22;2388;53.582;9.962;2023-03-03T17:30:53;6.10;99.90
4749;DHT22;2388;53.582;9.962;2023-03-03T17:39:10;6.10;99.90
4749;DHT22;2388;53.582;9.962;2023-03-03T17:41:53;6.10;99.90
4749;DHT22;2388;53.582;9.962;2023-03-03T17:44:33;6.00;99.90
4749;DHT22;2388;53.582;9.962;2023-03-03T17:47:05;6.00;99.90
4749;DHT22;2388;53.582;9.962;2023-03-03T17:49:45;5.90;99.90
4749;DHT22;2388;53.582;9.962;2023-03-03T17:55:55;5.90;99.90
4749;DHT22;2388;53.582;9.962;2023-03-03T17:58:46;5.90;99.90
4749;DHT22;2388;53.582;9.962;2023-03-03T18:04:36;5.90;99.90
4749;DHT22;2388;53.582;9.962;2023-03-03T18:10:17;5.90;99.90
4749;DHT22;2388;53.582;9.962;2023-03-03T18:13:05;5.90;99.90
4749;DHT22;2388;53.582;9.962;2023-03-03T18:18:29;5.90;99.90
4749;DHT22;2388;53.582;9.962;2023-03-03T18:21:25;5.90;99.90
4749;DHT22;2388;53.582;9.962;2023-03-03T18:24:26;5.90;99.90
4749;DHT22;2388;53.582;9.962;2023-03-03T18:26:53;5.90;99.90
4749;DHT22;2388;53.582;9.962;2023-03-03T18:29:27;5.90;99.90
4749;DHT22;2388;53.582;9.962;2023-03-03T18:34:37;6.00;99.90
4749;DHT22;2388;53.582;9.962;2023-03-03T18:48:09;5.90;99.90
4749;DHT22;2388;53.582;9.962;2023-03-03T18:53:27;5.90;99.90
4749;DHT22;2388;53.582;9.962;2023-03-03T18:55:57;5.90;99.90
4749;DHT22;2388;53.582;9.962;2023-03-03T18:58:41;5.90;99.90
4749;DHT22;2388;53.582;9.962;2023-03-03T19:03:36;5.90;99.90
4749;DHT22;2388;53.582;9.962;2023-03-03T19:06:04;5.90;99.90
4749;DHT22;2388;53.582;9.962;2023-03-03T19:08:43;5.80;99.90
4749;DHT22;2388;53.582;9.962;2023-03-03T19:11:50;5.80;99.90
4749;DHT22;2388;53.582;9.962;2023-03-03T19:14:28;5.80;99.90
4749;DHT22;2388;53.582;9.962;2023-03-03T19:17:40;5.80;99.90
4749;DHT22;2388;53.582;9.962;2023-03-03T19:20:16;5.80;99.90
4749;DHT22;2388;53.582;9.962;2023-03-03T19:22:47;5.80;99.90
4749;DHT22;2388;53.582;9.962;2023-03-03T19:25:21;5.80;99.90
4749;DHT22;2388;53.582;9.962;2023-03-03T19:36:13;5.70;99.90
4749;DHT22;2388;53.582;9.962;2023-03-03T19:41:21;5.70;99.90
4749;DHT22;2388;53.582;9.962;2023-03-03T19:44:06;5.60;99.90
4749;DHT22;2388;53.582;9.962;2023-03-03T19:46:51;5.70;99.90
4749;DHT22;2388;53.582;9.962;2023-03-03T19:55:01;5.60;99.90
4749;DHT22;2388;53.582;9.962;2023-03-03T19:57:35;5.60;99.90
4749;DHT22;2388;53.582;9.962;2023-03-03T20:09:18;5.60;99.90
4749;DHT22;2388;53.582;9.962;2023-03-03T20:20:35;5.60;99.90
4749;DHT22;2388;53.582;9.962;2023-03-03T20:26:14;5.70;99.90
4749;DHT22;2388;53.582;9.962;2023-03-03T20:31:44;5.70;99.90
4749;DHT22;2388;53.582;9.962;2023-03-03T20:39:55;5.70;99.90
4749;DHT22;2388;53.582;9.962;2023-03-03T20:42:52;5.80;99.90
4749;DHT22;2388;53.582;9.962;2023-03-03T20:45:31;5.70;99.90
4749;DHT22;2388;53.582;9.962;2023-03-03T20:51:04;5.70;99.90
4749;DHT22;2388;53.582;9.962;2023-03-03T20:53:53;5.70;99.90
4749;DHT22;2388;53.582;9.962;2023-03-03T20:56:53;5.80;99.90
4749;DHT22;2388;53.582;9.962;2023-03-03T20:59:23;5.70;99.90
4749;DHT22;2388;53.582;9.962;2023-03-03T21:02:14;5.80;99.90
4749;DHT22;2388;53.582;9.962;2023-03-03T21:04:42;5.80;99.90
4749;DHT22;2388;53.582;9.962;2023-03-03T21:07:07;5.80;99.90
4749;DHT22;2388;53.582;9.962;2023-03-03T21:09:37;5.70;99.90
4749;DHT22;2388;53.582;9.962;2023-03-03T21:12:25;5.80;99.90
4749;DHT22;2388;53.582;9.962;2023-03-03T21:15:02;5.80;99.90
4749;DHT22;2388;53.582;9.962;2023-03-03T21:17:31;5.80;99.90
4749;DHT22;2388;53.582;9.962;2023-03-03T21:22:48;5.90;99.90
4749;DHT22;2388;53.582;9.962;2023-03-03T21:33:56;6.00;99.90
4749;DHT22;2388;53.582;9.962;2023-03-03T21:38:56;5.90;99.90
4749;DHT22;2388;53.582;9.962;2023-03-03T21:41:23;5.90;99.90
4749;DHT22;2388;53.582;9.962;2023-03-03T21:43:51;5.90;99.90
4749;DHT22;2388;53.582;9.962;2023-03-03T21:46:22;5.90;99.90
4749;DHT22;2388;53.582;9.962;2023-03-03T21:48:48;5.90;99.90
4749;DHT22;2388;53.582;9.962;2023-03-03T21:51:14;5.90;99.90
4749;DHT22;2388;53.582;9.962;2023-03-03T21:53:43;5.90;99.90
4749;DHT22;2388;53.582;9.962;2023-03-03T21:56:09;5.90;99.90
4749;DHT22;2388;53.582;9.962;2023-03-03T21:58:35;5.90;99.90
4749;DHT22;2388;53.582;9.962;2023-03-03T22:01:05;5.90;99.90
4749;DHT22;2388;53.582;9.962;2023-03-03T22:03:31;5.90;99.90
4749;DHT22;2388;53.582;9.962;2023-03-03T22:05:57;5.90;99.90